Time;durP1;ratioP1;P1;durP2;ratioP2;P2;SDS_P1;SDS_P2;PMS_P1;PMS_P2;Temp;Humidity;BMP_temperature;BMP_pressure;BME280_temperature;BME280_humidity;BME280_pressure;Samples;Min_cycle;Max_cycle;Signal;HPM_P1;HPM_P2
2022/01/05 00:00:45;;;;;;;10.90;2.00;;;;;;;4.95;88.93;98429.17;105768;1271;23204;-63
2022/01/05 00:03:16;;;;;;;12.50;2.10;;;;;;;4.93;88.90;98419.25;105958;1271;22539;-63
2022/01/05 00:05:46;;;;;;;9.70;2.00;;;;;;;4.92;88.91;98414.56;105601;1271;22638;-63
2022/01/05 00:08:20;;;;;;;7.40;1.60;;;;;;;4.92;88.96;98418.19;105604;1271;24302;-63
2022/01/05 00:11:00;;;;;;;11.80;2.20;;;;;;;4.92;88.99;98418.58;105648;1271;24269;-62
2022/01/05 00:13:36;;;;;;;10.70;2.10;;;;;;;4.93;88.91;98416.08;105830;1271;22567;-63
2022/01/05 00:16:09;;;;;;;11.70;2.10;;;;;;;4.93;88.94;98420.66;105550;1271;25005;-62
2022/01/05 00:18:40;;;;;;;9.80;1.90;;;;;;;4.92;88.79;98418.59;105697;1271;22556;-64
2022/01/05 00:21:11;;;;;;;12.90;2.00;;;;;;;4.89;88.62;98422.52;105536;1271;24237;-63
2022/01/05 00:23:43;;;;;;;11.00;1.90;;;;;;;4.86;88.70;98420.97;105608;1271;23001;-63
2022/01/05 00:26:14;;;;;;;8.70;1.80;;;;;;;4.86;88.72;98420.88;105538;1271;24312;-63
2022/01/05 00:28:45;;;;;;;10.50;2.10;;;;;;;4.85;88.72;98417.10;105570;1271;26529;-63
2022/01/05 00:31:16;;;;;;;10.80;1.80;;;;;;;4.86;88.83;98418.05;105597;1271;25640;-63
2022/01/05 00:33:47;;;;;;;8.70;1.90;;;;;;;4.86;88.85;98428.41;105596;1271;22557;-63
2022/01/05 00:36:18;;;;;;;9.70;1.90;;;;;;;4.88;88.75;98432.77;105368;1271;370646;-62
2022/01/05 00:38:49;;;;;;;8.10;1.60;;;;;;;4.90;88.72;98437.11;105633;1271;22558;-63
2022/01/05 00:41:20;;;;;;;9.30;1.50;;;;;;;4.92;88.72;98440.80;105601;1271;22586;-62
2022/01/05 00:43:51;;;;;;;18.10;2.30;;;;;;;4.93;88.82;98443.48;105624;1271;24321;-63
2022/01/05 00:46:21;;;;;;;10.00;2.20;;;;;;;4.96;88.78;98436.96;105601;1271;24257;-63
2022/01/05 00:48:52;;;;;;;9.00;1.80;;;;;;;4.97;88.72;98440.67;105615;1271;22540;-62
2022/01/05 00:51:23;;;;;;;8.60;1.90;;;;;;;4.99;88.68;98441.69;105599;1271;22557;-63
2022/01/05 00:53:55;;;;;;;6.50;1.60;;;;;;;4.99;88.63;98434.30;106052;1271;22575;-63
2022/01/05 00:56:26;;;;;;;9.50;2.00;;;;;;;5.03;88.63;98430.38;106393;1271;22534;-63
2022/01/05 00:58:57;;;;;;;9.30;1.70;;;;;;;5.06;88.67;98430.77;106250;1271;26624;-64
2022/01/05 01:01:28;;;;;;;7.30;1.70;;;;;;;5.08;88.54;98427.21;106225;1271;22606;-64
2022/01/05 01:03:59;;;;;;;8.00;1.30;;;;;;;5.11;88.54;98427.30;106292;1271;22553;-63
2022/01/05 01:06:30;;;;;;;8.60;1.90;;;;;;;5.12;88.50;98428.77;106253;1271;25399;-62
2022/01/05 01:09:02;;;;;;;8.60;1.80;;;;;;;5.14;88.38;98428.90;106206;1271;25526;-63
2022/01/05 01:11:32;;;;;;;7.40;1.50;;;;;;;5.17;88.37;98440.05;107058;1271;23871;-63
2022/01/05 01:14:03;;;;;;;5.20;1.10;;;;;;;5.19;88.40;98452.85;106636;1271;25390;-64
2022/01/05 01:16:34;;;;;;;5.20;1.00;;;;;;;5.22;88.35;98456.90;106223;1271;24234;-63
2022/01/05 01:19:05;;;;;;;8.20;1.20;;;;;;;5.24;88.34;98455.27;106243;1271;22552;-62
2022/01/05 01:21:37;;;;;;;6.50;1.40;;;;;;;5.28;88.33;98456.05;106209;1271;25260;-63
2022/01/05 01:24:08;;;;;;;11.80;1.50;;;;;;;5.31;88.35;98458.47;106282;1271;23238;-62
2022/01/05 01:26:39;;;;;;;7.70;1.50;;;;;;;5.33;88.20;98462.01;106352;1271;25602;-63
2022/01/05 01:29:10;;;;;;;9.30;1.40;;;;;;;5.35;88.27;98464.04;106271;1271;24241;-64
2022/01/05 01:31:40;;;;;;;9.30;1.40;;;;;;;5.37;88.22;98460.60;106191;1271;23881;-64
2022/01/05 01:34:11;;;;;;;7.40;1.30;;;;;;;5.38;88.20;98461.76;106134;1271;22997;-63
2022/01/05 01:36:42;;;;;;;8.40;2.00;;;;;;;5.41;88.17;98465.96;106126;1271;25243;-64
2022/01/05 01:39:13;;;;;;;6.50;1.20;;;;;;;5.42;88.16;98466.18;106113;1271;26792;-64
2022/01/05 01:41:44;;;;;;;8.90;1.70;;;;;;;5.43;88.09;98474.75;106158;1271;22546;-64
2022/01/05 01:44:16;;;;;;;6.20;1.50;;;;;;;5.45;87.94;98476.77;106136;1271;22643;-63
2022/01/05 01:46:48;;;;;;;5.80;1.30;;;;;;;5.47;87.86;98468.73;106128;1271;26456;-63
2022/01/05 01:49:19;;;;;;;10.10;1.40;;;;;;;5.48;87.89;98468.55;106096;1271;24250;-63
2022/01/05 01:51:52;;;;;;;7.20;1.30;;;;;;;5.51;87.87;98471.76;106111;1271;25385;-63
2022/01/05 01:54:23;;;;;;;6.20;1.20;;;;;;;5.52;87.81;98464.69;106053;1271;22547;-63
2022/01/05 01:56:55;;;;;;;5.40;1.00;;;;;;;5.55;87.65;98458.38;106241;1271;22549;-63
2022/01/05 01:59:26;;;;;;;5.90;1.10;;;;;;;5.57;87.56;98446.67;106301;1271;22680;-63
2022/01/05 02:01:58;;;;;;;7.80;1.40;;;;;;;5.61;87.61;98452.84;106125;1271;26062;-63
2022/01/05 02:04:29;;;;;;;6.40;1.50;;;;;;;5.63;87.52;98443.36;106336;1271;25201;-63
2022/01/05 02:07:00;;;;;;;5.20;1.10;;;;;;;5.66;87.49;98441.77;106092;1271;22560;-63
2022/01/05 02:09:31;;;;;;;6.30;1.10;;;;;;;5.69;87.43;98435.15;106063;1271;24549;-63
2022/01/05 02:12:04;;;;;;;3.50;0.70;;;;;;;5.71;87.43;98429.90;106131;1271;22771;-62
2022/01/05 02:14:36;;;;;;;5.10;1.10;;;;;;;5.74;87.36;98429.71;106201;1271;22711;-63
2022/01/05 02:17:16;;;;;;;8.30;1.20;;;;;;;5.76;87.20;98427.72;106083;1271;25630;-63
2022/01/05 02:19:46;;;;;;;7.30;1.40;;;;;;;5.78;87.08;98432.81;106191;1271;22589;-63
2022/01/05 02:22:19;;;;;;;4.20;1.00;;;;;;;5.80;87.10;98441.64;106128;1271;24208;-63
2022/01/05 02:24:50;;;;;;;6.60;1.60;;;;;;;5.82;87.16;98453.55;106168;1271;22496;-63
2022/01/05 02:27:21;;;;;;;6.40;1.20;;;;;;;5.84;87.11;98454.39;106149;1271;22626;-62
2022/01/05 02:29:51;;;;;;;4.20;1.10;;;;;;;5.85;87.00;98446.01;106127;1271;25377;-63
2022/01/05 02:32:23;;;;;;;9.20;1.40;;;;;;;5.88;86.96;98439.37;106069;1271;22574;-63
2022/01/05 02:34:56;;;;;;;8.30;1.20;;;;;;;5.89;86.94;98436.67;106108;1271;22526;-63
2022/01/05 02:37:27;;;;;;;5.90;1.10;;;;;;;5.91;86.87;98432.40;106063;1271;24398;-63
2022/01/05 02:39:59;;;;;;;9.40;1.70;;;;;;;5.92;86.85;98430.95;106125;1271;25918;-63
2022/01/05 02:42:31;;;;;;;9.30;2.30;;;;;;;5.94;86.71;98425.54;106153;1271;22597;-63
2022/01/05 02:45:02;;;;;;;5.30;1.20;;;;;;;5.96;86.69;98419.91;106115;1271;25665;-63
2022/01/05 02:47:34;;;;;;;10.80;1.60;;;;;;;5.98;86.66;98415.94;106177;1271;22566;-64
2022/01/05 02:50:09;;;;;;;7.00;1.40;;;;;;;5.99;86.67;98413.39;106125;1271;23562;-62
2022/01/05 02:52:41;;;;;;;6.90;1.60;;;;;;;6.01;86.74;98409.08;106255;1271;25273;-63
2022/01/05 02:55:12;;;;;;;10.60;1.50;;;;;;;6.02;86.51;98411.09;106205;1271;22546;-62
2022/01/05 02:57:43;;;;;;;8.60;1.50;;;;;;;6.03;86.47;98416.48;106327;1271;25388;-62
2022/01/05 03:00:17;;;;;;;7.10;1.30;;;;;;;6.03;86.54;98410.20;106140;1271;25274;-63
2022/01/05 03:02:48;;;;;;;9.40;1.80;;;;;;;6.05;86.44;98412.56;106230;1271;22558;-63
2022/01/05 03:05:19;;;;;;;8.10;1.30;;;;;;;6.07;86.51;98422.25;106095;1271;22998;-62
2022/01/05 03:07:50;;;;;;;8.30;1.50;;;;;;;6.08;86.41;98426.25;106250;1271;22544;-63
2022/01/05 03:10:21;;;;;;;7.50;1.40;;;;;;;6.08;86.40;98422.17;106141;1271;24224;-62
2022/01/05 03:12:52;;;;;;;8.80;1.50;;;;;;;6.09;86.31;98420.11;106167;1271;25998;-62
2022/01/05 03:15:23;;;;;;;7.80;1.30;;;;;;;6.09;86.07;98424.09;106163;1271;22702;-62
2022/01/05 03:17:54;;;;;;;8.60;1.70;;;;;;;6.08;85.93;98434.52;106262;1271;22544;-63
2022/01/05 03:20:24;;;;;;;10.00;1.40;;;;;;;6.08;85.77;98441.20;106152;1271;22571;-64
2022/01/05 03:22:55;;;;;;;8.60;1.20;;;;;;;6.07;85.60;98435.51;106250;1271;25470;-63
2022/01/05 03:25:26;;;;;;;6.60;1.20;;;;;;;6.07;85.58;98434.90;106139;1271;22863;-63
2022/01/05 03:28:00;;;;;;;5.90;1.30;;;;;;;6.06;85.53;98430.91;106137;1271;24698;-63
2022/01/05 03:30:33;;;;;;;6.50;1.20;;;;;;;6.06;85.48;98438.46;106299;1271;22547;-63
2022/01/05 03:33:11;;;;;;;7.20;1.30;;;;;;;6.05;85.52;98436.85;106184;1271;22567;-62
2022/01/05 03:35:46;;;;;;;7.90;1.30;;;;;;;6.05;85.61;98440.23;106259;1271;22566;-62
2022/01/05 03:38:18;;;;;;;8.20;1.80;;;;;;;6.06;85.71;98440.54;106417;1271;22702;-63
2022/01/05 03:40:50;;;;;;;7.60;1.60;;;;;;;6.07;85.83;98432.54;106166;1271;25316;-63
2022/01/05 03:43:21;;;;;;;8.70;1.70;;;;;;;6.09;85.86;98430.98;106238;1271;25267;-62
2022/01/05 03:45:52;;;;;;;8.10;1.70;;;;;;;6.09;85.76;98440.86;106120;1271;22540;-62
2022/01/05 03:48:23;;;;;;;10.90;1.80;;;;;;;6.10;85.79;98453.87;106155;1271;22541;-62
2022/01/05 03:50:54;;;;;;;9.50;1.90;;;;;;;6.09;85.68;98460.76;106802;1271;22574;-63
2022/01/05 03:53:25;;;;;;;10.00;1.80;;;;;;;6.08;85.67;98458.89;106752;1271;22542;-63
2022/01/05 03:55:56;;;;;;;11.30;2.30;;;;;;;6.07;85.61;98456.96;106347;1271;25273;-63
2022/01/05 03:58:28;;;;;;;7.50;1.60;;;;;;;6.06;85.56;98458.20;106259;1271;22561;-63
2022/01/05 04:00:59;;;;;;;7.50;1.40;;;;;;;6.06;85.60;98441.39;106273;1271;22568;-63
2022/01/05 04:03:30;;;;;;;9.10;1.80;;;;;;;6.07;85.58;98433.39;106171;1271;26567;-63
2022/01/05 04:06:00;;;;;;;8.40;1.50;;;;;;;6.09;85.54;98431.79;106601;1271;25977;-63
2022/01/05 04:08:31;;;;;;;7.50;1.60;;;;;;;6.10;85.55;98426.27;106154;1271;25265;-63
2022/01/05 04:11:04;;;;;;;7.30;1.70;;;;;;;6.11;85.57;98421.98;106307;1271;22608;-63
2022/01/05 04:13:35;;;;;;;8.10;1.60;;;;;;;6.13;85.48;98419.18;106220;1271;25524;-63
2022/01/05 04:16:07;;;;;;;7.30;1.40;;;;;;;6.13;85.43;98421.90;106240;1271;22543;-63
2022/01/05 04:18:38;;;;;;;6.00;1.60;;;;;;;6.13;85.25;98427.59;106158;1271;24170;-63
2022/01/05 04:21:08;;;;;;;4.60;1.30;;;;;;;6.13;85.29;98437.61;106198;1271;22551;-63
2022/01/05 04:23:40;;;;;;;4.80;1.30;;;;;;;6.13;85.31;98433.08;106196;1271;23727;-63
2022/01/05 04:26:10;;;;;;;5.60;1.50;;;;;;;6.13;85.32;98423.61;106166;1272;25261;-63
2022/01/05 04:28:41;;;;;;;7.60;1.70;;;;;;;6.14;85.25;98417.62;106211;1271;22572;-63
2022/01/05 04:31:12;;;;;;;5.70;1.20;;;;;;;6.13;85.16;98422.86;106227;1271;25642;-63
2022/01/05 04:33:43;;;;;;;6.30;1.40;;;;;;;6.11;85.02;98424.36;106168;1271;22578;-63
2022/01/05 04:36:13;;;;;;;7.80;1.40;;;;;;;6.09;84.95;98412.36;106173;1271;22574;-63
2022/01/05 04:38:44;;;;;;;11.00;2.30;;;;;;;6.08;85.02;98409.28;106169;1271;24253;-63
2022/01/05 04:41:15;;;;;;;6.60;1.60;;;;;;;6.08;84.90;98410.09;106109;1271;22711;-63
2022/01/05 04:43:46;;;;;;;5.30;1.40;;;;;;;6.08;84.98;98418.23;106243;1271;23844;-62
2022/01/05 04:46:17;;;;;;;8.30;1.40;;;;;;;6.07;84.96;98425.69;106177;1273;23851;-62
2022/01/05 04:48:48;;;;;;;6.40;1.60;;;;;;;6.07;84.93;98425.73;106146;1271;26608;-63
2022/01/05 04:51:19;;;;;;;5.80;1.60;;;;;;;6.08;85.09;98422.41;106063;1272;22616;-63
2022/01/05 04:53:51;;;;;;;7.20;1.50;;;;;;;6.10;85.21;98422.54;106129;1271;22604;-63
2022/01/05 04:56:22;;;;;;;5.80;1.50;;;;;;;6.10;85.13;98426.38;106337;1271;22590;-63
2022/01/05 04:58:52;;;;;;;7.60;2.00;;;;;;;6.10;85.09;98432.52;106230;1271;25271;-63
2022/01/05 05:01:23;;;;;;;11.80;2.70;;;;;;;6.08;85.06;98434.30;106218;1271;25393;-63
2022/01/05 05:03:57;;;;;;;10.20;2.40;;;;;;;6.05;85.26;98449.44;106082;1271;25379;-62
2022/01/05 05:06:27;;;;;;;10.20;2.50;;;;;;;6.05;85.34;98442.79;106148;1272;25380;-62
2022/01/05 05:08:58;;;;;;;14.30;2.90;;;;;;;6.02;85.23;98435.67;106197;1271;22547;-62
2022/01/05 05:11:29;;;;;;;11.80;2.90;;;;;;;5.99;85.33;98446.23;106144;1271;25274;-62
2022/01/05 05:14:00;;;;;;;8.80;2.50;;;;;;;5.98;85.44;98443.24;106537;1271;25435;-62
2022/01/05 05:16:31;;;;;;;11.00;2.30;;;;;;;5.97;85.43;98435.63;106344;1272;25871;-63
2022/01/05 05:19:02;;;;;;;16.70;2.80;;;;;;;5.95;85.39;98433.70;106182;1271;22546;-62
2022/01/05 05:21:33;;;;;;;10.60;2.70;;;;;;;5.92;85.45;98435.23;106339;1271;25274;-63
2022/01/05 05:24:04;;;;;;;11.30;3.40;;;;;;;5.92;85.35;98426.32;106178;1271;26105;-62
2022/01/05 05:26:36;;;;;;;14.70;4.00;;;;;;;5.90;85.44;98420.32;106477;1271;23047;-63
2022/01/05 05:29:08;;;;;;;17.80;3.60;;;;;;;5.91;85.48;98427.48;106096;1271;25266;-62
2022/01/05 05:31:40;;;;;;;9.60;2.90;;;;;;;5.90;85.30;98428.77;106360;1271;22534;-63
2022/01/05 05:34:11;;;;;;;9.30;2.70;;;;;;;5.90;85.31;98430.23;106013;1271;22537;-63
2022/01/05 05:36:41;;;;;;;14.20;3.20;;;;;;;5.89;85.28;98433.10;106078;1271;22551;-63
2022/01/05 05:39:12;;;;;;;10.90;2.60;;;;;;;5.89;85.34;98435.30;106076;1271;22557;-64
2022/01/05 05:41:43;;;;;;;10.90;3.20;;;;;;;5.88;85.36;98430.77;106035;1271;25322;-63
2022/01/05 05:44:14;;;;;;;11.10;2.70;;;;;;;5.86;85.24;98419.86;106100;1272;22554;-64
2022/01/05 05:46:45;;;;;;;10.30;3.00;;;;;;;5.86;85.31;98412.02;106124;1271;22650;-63
2022/01/05 05:49:17;;;;;;;9.80;2.30;;;;;;;5.88;85.38;98416.36;106089;1272;24604;-63
2022/01/05 05:51:47;;;;;;;10.10;2.40;;;;;;;5.89;85.21;98411.09;106155;1273;22666;-63
2022/01/05 05:54:18;;;;;;;9.10;2.30;;;;;;;5.88;85.08;98405.34;106047;1271;25268;-63
2022/01/05 05:56:49;;;;;;;9.60;2.50;;;;;;;5.87;85.07;98404.42;106050;1271;22580;-63
2022/01/05 05:59:20;;;;;;;10.00;2.90;;;;;;;5.88;85.12;98406.50;105838;1271;24054;-62
2022/01/05 06:01:51;;;;;;;11.00;3.10;;;;;;;5.89;85.00;98403.45;106161;1271;25262;-62
2022/01/05 06:04:21;;;;;;;11.50;3.10;;;;;;;5.89;85.04;98404.39;105763;1271;24232;-70
2022/01/05 06:06:52;;;;;;;11.40;3.20;;;;;;;5.91;85.09;98400.42;105757;1271;24242;-64
2022/01/05 06:09:23;;;;;;;11.30;2.70;;;;;;;5.91;84.96;98398.73;105648;1273;22553;-64
2022/01/05 06:11:54;;;;;;;8.80;2.70;;;;;;;5.88;84.72;98403.52;105543;1271;22585;-63
2022/01/05 06:14:25;;;;;;;11.80;3.50;;;;;;;5.86;84.87;98409.39;105523;1272;25590;-68
2022/01/05 06:16:56;;;;;;;11.60;2.70;;;;;;;5.88;84.81;98407.80;105872;1271;24271;-65
2022/01/05 06:19:28;;;;;;;12.00;3.50;;;;;;;5.88;84.84;98417.91;106218;1273;22548;-61
2022/01/05 06:21:59;;;;;;;10.20;3.10;;;;;;;5.88;84.76;98423.71;105975;1273;22536;-67
2022/01/05 06:24:34;;;;;;;15.90;4.20;;;;;;;5.88;84.85;98431.83;105944;1271;24675;-64
2022/01/05 06:27:08;;;;;;;14.90;4.70;;;;;;;5.87;84.75;98426.53;106056;1272;22724;-63
2022/01/05 06:29:40;;;;;;;11.90;3.70;;;;;;;5.85;84.85;98414.48;106031;1272;23684;-64
2022/01/05 06:32:12;;;;;;;10.40;3.20;;;;;;;5.84;84.84;98413.19;106871;1271;25388;-63
2022/01/05 06:34:43;;;;;;;9.40;3.20;;;;;;;5.82;84.79;98418.29;105860;1271;22667;-64
2022/01/05 06:37:15;;;;;;;16.80;4.80;;;;;;;5.84;84.88;98425.68;105692;1273;26523;-64
2022/01/05 06:39:46;;;;;;;15.00;5.20;;;;;;;5.84;84.93;98425.38;106080;1271;22576;-64
2022/01/05 06:42:17;;;;;;;15.90;5.50;;;;;;;5.83;84.85;98426.83;105870;1273;25329;-65
2022/01/05 06:44:48;;;;;;;16.00;5.90;;;;;;;5.83;84.91;98427.48;105866;1271;22721;-64
2022/01/05 06:47:19;;;;;;;19.50;6.80;;;;;;;5.81;84.82;98424.48;105919;1273;22532;-65
2022/01/05 06:49:50;;;;;;;19.10;7.20;;;;;;;5.80;84.85;98428.60;105991;1271;23082;-64
2022/01/05 06:52:20;;;;;;;18.10;6.20;;;;;;;5.78;84.91;98427.04;105832;1271;22632;-64
2022/01/05 06:54:51;;;;;;;15.50;6.50;;;;;;;5.75;84.98;98423.63;105888;1271;25796;-65
2022/01/05 06:57:22;;;;;;;17.00;5.60;;;;;;;5.75;84.92;98427.77;105900;1273;22538;-64
2022/01/05 06:59:53;;;;;;;12.10;4.10;;;;;;;5.75;84.98;98429.52;106085;1271;22553;-64
2022/01/05 07:02:24;;;;;;;13.60;3.90;;;;;;;5.72;84.82;98429.39;105815;1271;22557;-65
2022/01/05 07:04:55;;;;;;;13.80;4.70;;;;;;;5.70;84.98;98428.66;105983;1273;25264;-64
2022/01/05 07:07:26;;;;;;;18.60;4.60;;;;;;;5.69;85.03;98427.41;105823;1271;22556;-65
2022/01/05 07:09:57;;;;;;;11.80;3.70;;;;;;;5.70;85.16;98425.61;105863;1273;25295;-63
2022/01/05 07:12:30;;;;;;;15.70;4.10;;;;;;;5.70;85.11;98428.53;105981;1271;22533;-64
2022/01/05 07:15:01;;;;;;;14.80;4.60;;;;;;;5.69;85.09;98429.31;105947;1271;24446;-64
2022/01/05 07:17:33;;;;;;;19.70;4.70;;;;;;;5.66;85.07;98429.09;106054;1271;24242;-64
2022/01/05 07:20:04;;;;;;;15.00;4.40;;;;;;;5.66;85.16;98433.23;106535;1271;24236;-64
2022/01/05 07:22:35;;;;;;;16.10;4.50;;;;;;;5.67;85.26;98432.27;106042;1271;24361;-64
2022/01/05 07:25:07;;;;;;;12.50;4.10;;;;;;;5.67;85.31;98424.66;105897;1271;25387;-64
2022/01/05 07:27:39;;;;;;;16.80;4.70;;;;;;;5.68;85.41;98427.80;105887;1273;23052;-64
2022/01/05 07:30:12;;;;;;;13.20;4.50;;;;;;;5.69;85.30;98426.59;105942;1271;23569;-64
2022/01/05 07:32:43;;;;;;;10.80;3.40;;;;;;;5.68;85.43;98427.23;105878;1271;22554;-64
2022/01/05 07:35:14;;;;;;;15.30;4.90;;;;;;;5.70;85.50;98428.27;105969;1271;22723;-64
2022/01/05 07:37:45;;;;;;;13.50;3.90;;;;;;;5.71;85.44;98432.00;105930;1271;25424;-63
2022/01/05 07:40:17;;;;;;;14.30;4.00;;;;;;;5.71;85.54;98422.89;105877;1271;25337;-64
2022/01/05 07:42:48;;;;;;;11.80;3.60;;;;;;;5.70;85.53;98426.27;105883;1271;25385;-65
2022/01/05 07:45:19;;;;;;;14.40;4.50;;;;;;;5.69;85.47;98422.98;105887;1271;23931;-65
2022/01/05 07:47:50;;;;;;;12.00;4.10;;;;;;;5.71;85.64;98427.27;105933;1271;25387;-64
2022/01/05 07:50:21;;;;;;;14.20;4.80;;;;;;;5.72;85.64;98424.02;105895;1271;23271;-65
2022/01/05 07:52:51;;;;;;;14.70;5.00;;;;;;;5.72;85.67;98424.46;105677;1271;22573;-64
2022/01/05 07:55:22;;;;;;;12.40;4.00;;;;;;;5.74;85.76;98425.28;105847;1271;24327;-65
2022/01/05 07:57:53;;;;;;;15.40;4.70;;;;;;;5.77;85.75;98423.10;105884;1271;23192;-65
2022/01/05 08:00:24;;;;;;;13.20;4.70;;;;;;;5.78;85.79;98429.55;105855;1271;22541;-65
2022/01/05 08:02:55;;;;;;;16.00;5.00;;;;;;;5.78;85.84;98424.91;105788;1271;22570;-65
2022/01/05 08:05:26;;;;;;;12.90;4.10;;;;;;;5.80;85.84;98427.10;105908;1271;22573;-65
2022/01/05 08:07:57;;;;;;;15.50;4.70;;;;;;;5.82;85.78;98430.94;105850;1272;22554;-64
2022/01/05 08:10:28;;;;;;;11.90;3.90;;;;;;;5.82;85.68;98439.39;105649;1271;24310;-64
2022/01/05 08:12:59;;;;;;;15.50;3.70;;;;;;;5.81;85.75;98444.73;105846;1271;25267;-61
2022/01/05 08:15:32;;;;;;;11.90;3.30;;;;;;;5.81;85.74;98437.07;105999;1271;26734;-64
2022/01/05 08:18:03;;;;;;;13.90;3.80;;;;;;;5.81;85.76;98436.63;106083;1272;24281;-64
2022/01/05 08:20:34;;;;;;;11.60;3.00;;;;;;;5.81;85.67;98433.20;105791;1271;22540;-64
2022/01/05 08:23:05;;;;;;;12.40;3.40;;;;;;;5.82;85.66;98437.59;105792;1271;22544;-64
2022/01/05 08:25:36;;;;;;;9.40;2.50;;;;;;;5.82;85.57;98440.80;105851;1271;25261;-64
2022/01/05 08:28:08;;;;;;;10.20;2.60;;;;;;;5.81;85.65;98442.52;106096;1271;22788;-64
2022/01/05 08:30:39;;;;;;;8.40;2.70;;;;;;;5.81;85.58;98441.81;106157;1271;22541;-64
2022/01/05 08:33:10;;;;;;;7.30;2.00;;;;;;;5.81;85.51;98446.27;105854;1271;25259;-64
2022/01/05 08:35:41;;;;;;;9.20;2.20;;;;;;;5.81;85.60;98448.05;105910;1272;22638;-64
2022/01/05 08:38:13;;;;;;;7.60;2.10;;;;;;;5.82;85.65;98453.54;105661;1273;25542;-65
2022/01/05 08:40:45;;;;;;;8.00;1.90;;;;;;;5.84;85.73;98455.28;105786;1271;22571;-65
2022/01/05 08:43:16;;;;;;;9.40;2.20;;;;;;;5.86;85.85;98455.52;105835;1272;22559;-64
2022/01/05 08:45:48;;;;;;;8.30;2.00;;;;;;;5.87;85.85;98462.43;105988;1272;22566;-65
2022/01/05 08:48:19;;;;;;;6.80;2.30;;;;;;;5.88;85.91;98452.91;106095;1271;24442;-64
2022/01/05 08:50:51;;;;;;;11.30;2.70;;;;;;;5.87;85.91;98458.65;106056;1271;26533;-64
2022/01/05 08:53:23;;;;;;;11.10;2.80;;;;;;;5.87;86.04;98453.32;106185;1271;22579;-64
2022/01/05 08:55:54;;;;;;;10.40;2.50;;;;;;;5.89;86.20;98457.41;106172;1271;26973;-64
2022/01/05 08:58:25;;;;;;;10.10;2.80;;;;;;;5.88;86.07;98451.36;106013;1271;22535;-64
2022/01/05 09:00:56;;;;;;;10.20;2.40;;;;;;;5.88;86.20;98441.23;106175;1271;22601;-64
2022/01/05 09:03:27;;;;;;;11.40;2.50;;;;;;;5.90;86.27;98452.55;106287;1271;22544;-63
2022/01/05 09:06:00;;;;;;;10.80;2.30;;;;;;;5.90;86.31;98452.29;106073;1271;23819;-61
2022/01/05 09:08:31;;;;;;;11.00;2.50;;;;;;;5.91;86.36;98451.48;106402;1272;27651;-66
2022/01/05 09:11:08;;;;;;;12.90;2.40;;;;;;;5.92;86.35;98451.76;107096;1272;22729;-65
2022/01/05 09:13:39;;;;;;;14.80;2.60;;;;;;;5.93;86.33;98457.45;106010;1271;25331;-64
2022/01/05 09:16:11;;;;;;;9.50;2.00;;;;;;;5.95;86.33;98454.74;106277;1271;25376;-64
2022/01/05 09:18:42;;;;;;;10.60;1.80;;;;;;;5.96;86.35;98450.77;106039;1271;22545;-64
2022/01/05 09:21:13;;;;;;;10.90;2.40;;;;;;;5.98;86.45;98457.34;105937;1271;22560;-64
2022/01/05 09:23:44;;;;;;;10.40;2.20;;;;;;;5.98;86.44;98456.48;106605;1271;24725;-64
2022/01/05 09:26:15;;;;;;;10.30;2.10;;;;;;;6.01;86.53;98466.88;106091;1271;26657;-64
2022/01/05 09:28:53;;;;;;;12.90;2.40;;;;;;;6.03;86.62;98469.16;106299;1271;22593;-65
2022/01/05 09:31:28;;;;;;;8.50;1.90;;;;;;;6.05;86.67;98460.46;105966;1271;23784;-64
2022/01/05 09:34:01;;;;;;;8.90;2.20;;;;;;;6.07;86.73;98451.71;105970;1271;22535;-64
2022/01/05 09:36:36;;;;;;;9.10;2.80;;;;;;;6.09;86.62;98455.77;106041;1271;22849;-64
2022/01/05 09:41:57;;;;;;;8.70;2.60;;;;;;;6.13;86.76;98457.41;105946;1271;22522;-64
2022/01/05 09:44:32;;;;;;;12.40;3.20;;;;;;;6.15;86.88;98464.17;106130;1271;25274;-65
2022/01/05 09:47:20;;;;;;;13.40;3.20;;;;;;;6.16;86.84;98465.54;106044;1271;22535;-65
2022/01/05 09:50:05;;;;;;;12.20;3.10;;;;;;;6.16;86.88;98470.18;105996;1271;24235;-64
2022/01/05 09:52:41;;;;;;;11.20;2.10;;;;;;;6.17;86.90;98474.58;106388;1271;22544;-65
2022/01/05 09:55:18;;;;;;;7.80;2.00;;;;;;;6.16;86.94;98478.90;106835;1271;22579;-65
2022/01/05 09:57:49;;;;;;;10.00;1.90;;;;;;;6.14;86.89;98496.97;105894;1271;22559;-65
2022/01/05 10:00:27;;;;;;;8.50;1.90;;;;;;;6.12;86.68;98504.15;105787;1273;23018;-64
2022/01/05 10:03:02;;;;;;;9.30;2.10;;;;;;;6.09;86.75;98493.20;105943;1271;25508;-64
2022/01/05 10:05:34;;;;;;;10.00;2.30;;;;;;;6.08;86.65;98479.73;105864;1271;24310;-64
2022/01/05 10:08:09;;;;;;;10.00;1.80;;;;;;;6.07;86.85;98471.06;105994;1271;23052;-65
2022/01/05 10:10:41;;;;;;;10.60;1.60;;;;;;;6.07;86.88;98474.70;106038;1271;24292;-64
2022/01/05 10:13:12;;;;;;;11.70;2.40;;;;;;;6.08;86.87;98476.83;106354;1271;22820;-64
2022/01/05 10:15:44;;;;;;;8.90;1.90;;;;;;;6.10;87.02;98480.96;105990;1271;25273;-64
2022/01/05 10:18:25;;;;;;;7.90;1.70;;;;;;;6.11;86.95;98482.08;106292;1271;24691;-64
2022/01/05 10:23:56;;;;;;;10.40;2.10;;;;;;;6.12;87.20;98486.63;105565;1276;22898;-65
2022/01/05 10:26:34;;;;;;;9.70;2.00;;;;;;;6.11;87.11;98484.35;105676;1276;23354;-65
2022/01/05 10:29:07;;;;;;;9.20;1.90;;;;;;;6.10;87.15;98485.05;105725;1276;25263;-65
2022/01/05 10:31:42;;;;;;;9.40;1.80;;;;;;;6.09;87.17;98492.33;105788;1276;22631;-66
2022/01/05 10:34:23;;;;;;;9.00;1.70;;;;;;;6.08;87.23;98501.09;105545;1276;25360;-65
2022/01/05 10:36:54;;;;;;;;;;;;;;;6.07;87.29;98503.09;105565;1276;24272;-65
2022/01/05 10:39:35;;;;;;;8.70;1.80;;;;;;;6.03;87.12;98515.90;105823;1276;22543;-64
2022/01/05 10:42:19;;;;;;;10.80;1.70;;;;;;;6.00;87.27;98528.77;105449;1276;25254;-64
2022/01/05 10:44:53;;;;;;;5.10;1.10;;;;;;;5.97;87.16;98528.60;105606;1275;22649;-65
2022/01/05 10:47:27;;;;;;;6.50;0.90;;;;;;;5.93;86.86;98533.69;105802;1276;26824;-65
2022/01/05 10:49:58;;;;;;;5.00;0.70;;;;;;;5.84;86.49;98551.64;105536;1277;25391;-65
2022/01/05 10:52:33;;;;;;;3.20;0.60;;;;;;;5.66;86.22;98551.31;105464;1276;22698;-64
2022/01/05 10:55:17;;;;;;;2.10;0.30;;;;;;;5.47;86.38;98563.76;105612;1271;22556;-65
2022/01/05 10:58:11;;;;;;;1.30;0.10;;;;;;;5.16;84.70;98579.90;105883;1271;22537;-64
2022/01/05 11:00:46;;;;;;;1.00;0.20;;;;;;;4.74;84.61;98580.09;105752;1271;25476;-64
2022/01/05 11:03:30;;;;;;;0.80;0.10;;;;;;;4.42;85.22;98578.23;106068;1271;22745;-64
2022/01/05 11:06:07;;;;;;;0.90;0.10;;;;;;;4.16;85.85;98598.48;106055;1271;22541;-63
2022/01/05 11:08:52;;;;;;;0.90;0.10;;;;;;;3.96;86.50;98604.98;106050;1271;22534;-64
2022/01/05 11:11:45;;;;;;;1.70;0.20;;;;;;;3.81;86.69;98606.35;105998;1273;25372;-65
2022/01/05 11:14:20;;;;;;;2.70;0.20;;;;;;;3.67;87.09;98600.45;105993;1271;22573;-63
2022/01/05 11:16:54;;;;;;;1.60;0.20;;;;;;;3.58;87.40;98591.36;105904;1271;24282;-63
2022/01/05 11:19:28;;;;;;;2.10;0.20;;;;;;;3.51;87.72;98584.69;106131;1271;22573;-64
2022/01/05 11:22:14;;;;;;;1.20;0.20;;;;;;;3.47;87.73;98594.67;106191;1271;22936;-64
2022/01/05 11:24:50;;;;;;;1.10;0.20;;;;;;;3.43;88.01;98608.52;105806;1271;22695;-65
2022/01/05 11:27:28;;;;;;;4.50;0.40;;;;;;;3.36;87.95;98611.15;105913;1271;22581;-65
2022/01/05 11:30:00;;;;;;;1.80;0.30;;;;;;;3.32;88.03;98618.74;105895;1271;25277;-63
2022/01/05 11:32:52;;;;;;;2.00;0.30;;;;;;;3.29;87.71;98632.83;105871;1271;22606;-64
2022/01/05 11:35:24;;;;;;;3.70;0.40;;;;;;;3.28;87.33;98655.63;106202;1271;25287;-65
2022/01/05 11:37:57;;;;;;;4.00;0.40;;;;;;;3.26;87.10;98651.11;106119;1274;22633;-64
2022/01/05 11:40:34;;;;;;;4.50;0.40;;;;;;;3.27;87.28;98660.20;105983;1271;22595;-64
2022/01/05 11:43:10;;;;;;;4.60;0.40;;;;;;;3.28;87.31;98667.64;106000;1273;25255;-64
2022/01/05 11:45:52;;;;;;;5.80;0.70;;;;;;;3.25;86.86;98671.15;105778;1273;22649;-62
2022/01/05 11:48:35;;;;;;;9.20;0.50;;;;;;;3.24;86.82;98668.61;105942;1271;22548;-65
2022/01/05 11:51:14;;;;;;;5.00;0.50;;;;;;;3.22;86.62;98673.22;106231;1271;22560;-63
2022/01/05 11:53:48;;;;;;;4.90;0.50;;;;;;;3.19;86.63;98670.10;106432;1271;22537;-65
2022/01/05 11:56:21;;;;;;;6.00;0.70;;;;;;;3.17;86.55;98666.11;106031;1271;22653;-65
2022/01/05 11:59:02;;;;;;;4.70;1.00;;;;;;;3.15;86.70;98668.98;106021;1271;22642;-64